sensor_id;sensor_type;location;lat;lon;timestamp;temperature;humidity
57282;DHT22;43129;52.628;10.098;2023-09-18T00:02:07;18.90;99.90
57282;DHT22;43129;52.628;10.098;2023-09-18T00:04:32;18.90;99.90
57282;DHT22;43129;52.628;10.098;2023-09-18T00:07:03;18.80;99.90
57282;DHT22;43129;52.628;10.098;2023-09-18T00:09:30;18.80;99.90
57282;DHT22;43129;52.628;10.098;2023-09-18T00:12:00;18.70;99.90
57282;DHT22;43129;52.628;10.098;2023-09-18T00:14:26;18.80;99.90
57282;DHT22;43129;52.628;10.098;2023-09-18T00:16:52;18.90;99.90
57282;DHT22;43129;52.628;10.098;2023-09-18T00:19:18;18.90;99.90
57282;DHT22;43129;52.628;10.098;2023-09-18T00:21:46;18.90;99.90
57282;DHT22;43129;52.628;10.098;2023-09-18T00:24:14;18.80;99.90
57282;DHT22;43129;52.628;10.098;2023-09-18T00:26:39;18.70;99.90
57282;DHT22;43129;52.628;10.098;2023-09-18T00:29:05;18.70;99.90
57282;DHT22;43129;52.628;10.098;2023-09-18T00:31:30;18.70;99.90
57282;DHT22;43129;52.628;10.098;2023-09-18T00:33:58;18.60;99.90
57282;DHT22;43129;52.628;10.098;2023-09-18T00:36:24;18.60;99.90
57282;DHT22;43129;52.628;10.098;2023-09-18T00:38:54;18.60;99.90
57282;DHT22;43129;52.628;10.098;2023-09-18T00:41:20;18.60;99.90
57282;DHT22;43129;52.628;10.098;2023-09-18T00:43:48;18.60;99.90
57282;DHT22;43129;52.628;10.098;2023-09-18T00:46:13;18.50;99.90
57282;DHT22;43129;52.628;10.098;2023-09-18T00:48:39;18.50;99.90
57282;DHT22;43129;52.628;10.098;2023-09-18T00:51:06;18.50;99.90
57282;DHT22;43129;52.628;10.098;2023-09-18T00:53:33;18.50;99.90
57282;DHT22;43129;52.628;10.098;2023-09-18T00:56:00;18.50;99.90
57282;DHT22;43129;52.628;10.098;2023-09-18T00:58:26;18.50;99.90
57282;DHT22;43129;52.628;10.098;2023-09-18T01:00:52;18.40;99.90
57282;DHT22;43129;52.628;10.098;2023-09-18T01:03:19;18.30;99.90
57282;DHT22;43129;52.628;10.098;2023-09-18T01:05:50;18.30;99.90
57282;DHT22;43129;52.628;10.098;2023-09-18T01:08:18;18.30;99.90
57282;DHT22;43129;52.628;10.098;2023-09-18T01:11:03;18.30;99.90
57282;DHT22;43129;52.628;10.098;2023-09-18T01:13:37;18.30;99.90
57282;DHT22;43129;52.628;10.098;2023-09-18T01:16:27;18.30;99.90
57282;DHT22;43129;52.628;10.098;2023-09-18T01:18:53;18.30;99.90
57282;DHT22;43129;52.628;10.098;2023-09-18T01:21:19;18.30;99.90
57282;DHT22;43129;52.628;10.098;2023-09-18T01:23:46;18.30;99.90
57282;DHT22;43129;52.628;10.098;2023-09-18T01:26:12;18.20;99.90
57282;DHT22;43129;52.628;10.098;2023-09-18T01:28:37;18.10;99.90
57282;DHT22;43129;52.628;10.098;2023-09-18T01:31:03;18.10;99.90
57282;DHT22;43129;52.628;10.098;2023-09-18T01:33:29;18.10;99.90
57282;DHT22;43129;52.628;10.098;2023-09-18T01:35:56;18.10;99.90
57282;DHT22;43129;52.628;10.098;2023-09-18T01:38:23;18.10;99.90
57282;DHT22;43129;52.628;10.098;2023-09-18T01:40:55;18.10;99.90
57282;DHT22;43129;52.628;10.098;2023-09-18T01:43:21;18.10;99.90
57282;DHT22;43129;52.628;10.098;2023-09-18T01:45:47;18.10;99.90
57282;DHT22;43129;52.628;10.098;2023-09-18T01:48:15;18.10;99.90
57282;DHT22;43129;52.628;10.098;2023-09-18T01:50:43;18.10;99.90
57282;DHT22;43129;52.628;10.098;2023-09-18T01:53:08;18.10;99.90
57282;DHT22;43129;52.628;10.098;2023-09-18T01:55:34;18.10;99.90
57282;DHT22;43129;52.628;10.098;2023-09-18T01:58:00;18.10;99.90
57282;DHT22;43129;52.628;10.098;2023-09-18T02:00:28;18.10;99.90
57282;DHT22;43129;52.628;10.098;2023-09-18T02:02:58;18.00;99.90
57282;DHT22;43129;52.628;10.098;2023-09-18T02:05:24;18.00;99.90
57282;DHT22;43129;52.628;10.098;2023-09-18T02:07:54;17.90;99.90
57282;DHT22;43129;52.628;10.098;2023-09-18T02:10:19;17.90;99.90
57282;DHT22;43129;52.628;10.098;2023-09-18T02:12:47;17.80;99.90
57282;DHT22;43129;52.628;10.098;2023-09-18T02:15:13;17.80;99.90
57282;DHT22;43129;52.628;10.098;2023-09-18T02:17:44;17.80;99.90
57282;DHT22;43129;52.628;10.098;2023-09-18T02:20:10;17.80;99.90
57282;DHT22;43129;52.628;10.098;2023-09-18T02:22:40;17.80;99.90
57282;DHT22;43129;52.628;10.098;2023-09-18T02:25:06;17.80;99.90
57282;DHT22;43129;52.628;10.098;2023-09-18T02:27:34;17.80;99.90
57282;DHT22;43129;52.628;10.098;2023-09-18T02:30:02;17.80;99.90
57282;DHT22;43129;52.628;10.098;2023-09-18T02:32:32;17.80;99.90
57282;DHT22;43129;52.628;10.098;2023-09-18T02:34:58;17.80;99.90
57282;DHT22;43129;52.628;10.098;2023-09-18T02:37:23;17.80;99.90
57282;DHT22;43129;52.628;10.098;2023-09-18T02:39:49;17.80;99.90
57282;DHT22;43129;52.628;10.098;2023-09-18T02:42:15;17.80;99.90
57282;DHT22;43129;52.628;10.098;2023-09-18T02:44:40;17.70;99.90
57282;DHT22;43129;52.628;10.098;2023-09-18T02:47:06;17.70;99.90
57282;DHT22;43129;52.628;10.098;2023-09-18T02:49:31;17.60;99.90
57282;DHT22;43129;52.628;10.098;2023-09-18T02:51:58;17.60;99.90
57282;DHT22;43129;52.628;10.098;2023-09-18T02:54:24;17.60;99.90
57282;DHT22;43129;52.628;10.098;2023-09-18T02:56:49;17.60;99.90
57282;DHT22;43129;52.628;10.098;2023-09-18T02:59:15;17.60;99.90
57282;DHT22;43129;52.628;10.098;2023-09-18T03:01:43;17.70;99.90
57282;DHT22;43129;52.628;10.098;2023-09-18T03:04:11;17.70;99.90
57282;DHT22;43129;52.628;10.098;2023-09-18T03:06:38;17.60;99.90
57282;DHT22;43129;52.628;10.098;2023-09-18T03:09:05;17.70;99.90
57282;DHT22;43129;52.628;10.098;2023-09-18T03:11:33;17.70;99.90
57282;DHT22;43129;52.628;10.098;2023-09-18T03:13:58;17.70;99.90
57282;DHT22;43129;52.628;10.098;2023-09-18T03:16:24;17.70;99.90
57282;DHT22;43129;52.628;10.098;2023-09-18T03:18:50;17.70;99.90
57282;DHT22;43129;52.628;10.098;2023-09-18T03:21:16;17.60;99.90
57282;DHT22;43129;52.628;10.098;2023-09-18T03:23:41;17.70;99.90
57282;DHT22;43129;52.628;10.098;2023-09-18T03:26:09;17.60;99.90
57282;DHT22;43129;52.628;10.098;2023-09-18T03:28:34;17.60;99.90
57282;DHT22;43129;52.628;10.098;2023-09-18T03:31:00;17.60;99.90
57282;DHT22;43129;52.628;10.098;2023-09-18T03:33:26;17.60;99.90
57282;DHT22;43129;52.628;10.098;2023-09-18T03:35:52;17.50;99.90
57282;DHT22;43129;52.628;10.098;2023-09-18T03:38:19;17.40;99.90
57282;DHT22;43129;52.628;10.098;2023-09-18T03:40:46;17.40;99.90
57282;DHT22;43129;52.628;10.098;2023-09-18T03:43:12;17.50;99.90
57282;DHT22;43129;52.628;10.098;2023-09-18T03:45:40;17.50;99.90
57282;DHT22;43129;52.628;10.098;2023-09-18T03:48:09;17.50;99.90
57282;DHT22;43129;52.628;10.098;2023-09-18T03:50:35;17.50;99.90
57282;DHT22;43129;52.628;10.098;2023-09-18T03:53:03;17.50;99.90
57282;DHT22;43129;52.628;10.098;2023-09-18T03:55:29;17.40;99.90
57282;DHT22;43129;52.628;10.098;2023-09-18T03:57:55;17.40;99.90
57282;DHT22;43129;52.628;10.098;2023-09-18T04:00:21;17.50;99.90
57282;DHT22;43129;52.628;10.098;2023-09-18T04:02:48;17.40;99.90
57282;DHT22;43129;52.628;10.098;2023-09-18T04:05:14;17.40;99.90
57282;DHT22;43129;52.628;10.098;2023-09-18T04:07:39;17.40;99.90
57282;DHT22;43129;52.628;10.098;2023-09-18T04:10:05;17.40;99.90
57282;DHT22;43129;52.628;10.098;2023-09-18T04:12:31;17.40;99.90
57282;DHT22;43129;52.628;10.098;2023-09-18T04:14:57;17.40;99.90
57282;DHT22;43129;52.628;10.098;2023-09-18T04:17:25;17.50;99.90
57282;DHT22;43129;52.628;10.098;2023-09-18T04:19:53;17.50;99.90
57282;DHT22;43129;52.628;10.098;2023-09-18T04:22:19;17.50;99.90
57282;DHT22;43129;52.628;10.098;2023-09-18T04:24:45;17.50;99.90
57282;DHT22;43129;52.628;10.098;2023-09-18T04:27:13;17.50;99.90
57282;DHT22;43129;52.628;10.098;2023-09-18T04:29:39;17.50;99.90
57282;DHT22;43129;52.628;10.098;2023-09-18T04:32:06;17.40;99.90
57282;DHT22;43129;52.628;10.098;2023-09-18T04:34:34;17.40;99.90
57282;DHT22;43129;52.628;10.098;2023-09-18T04:37:00;17.40;99.90
57282;DHT22;43129;52.628;10.098;2023-09-18T04:39:26;17.30;99.90
57282;DHT22;43129;52.628;10.098;2023-09-18T04:41:51;17.30;99.90
57282;DHT22;43129;52.628;10.098;2023-09-18T04:44:17;17.30;99.90
57282;DHT22;43129;52.628;10.098;2023-09-18T04:46:42;17.30;99.90
57282;DHT22;43129;52.628;10.098;2023-09-18T04:49:08;17.40;99.90
57282;DHT22;43129;52.628;10.098;2023-09-18T04:51:36;17.30;99.90
57282;DHT22;43129;52.628;10.098;2023-09-18T04:54:08;17.40;99.90
57282;DHT22;43129;52.628;10.098;2023-09-18T04:56:38;17.40;99.90
57282;DHT22;43129;52.628;10.098;2023-09-18T04:59:04;17.30;99.90
57282;DHT22;43129;52.628;10.098;2023-09-18T05:01:30;17.30;99.90
57282;DHT22;43129;52.628;10.098;2023-09-18T05:03:55;17.30;99.90
57282;DHT22;43129;52.628;10.098;2023-09-18T05:06:26;17.30;99.90
57282;DHT22;43129;52.628;10.098;2023-09-18T05:08:54;17.30;99.90
57282;DHT22;43129;52.628;10.098;2023-09-18T05:11:23;17.40;99.90
57282;DHT22;43129;52.628;10.098;2023-09-18T05:13:48;17.40;99.90
57282;DHT22;43129;52.628;10.098;2023-09-18T05:16:14;17.40;99.90
57282;DHT22;43129;52.628;10.098;2023-09-18T05:18:40;17.50;99.90
57282;DHT22;43129;52.628;10.098;2023-09-18T05:21:07;17.50;99.90
57282;DHT22;43129;52.628;10.098;2023-09-18T05:23:35;17.50;99.90
57282;DHT22;43129;52.628;10.098;2023-09-18T05:26:04;17.50;99.90
57282;DHT22;43129;52.628;10.098;2023-09-18T05:28:31;17.60;99.90
57282;DHT22;43129;52.628;10.098;2023-09-18T05:30:59;17.60;99.90
57282;DHT22;43129;52.628;10.098;2023-09-18T05:33:25;17.70;99.90
57282;DHT22;43129;52.628;10.098;2023-09-18T05:35:51;17.70;99.90
57282;DHT22;43129;52.628;10.098;2023-09-18T05:38:16;17.80;99.90
57282;DHT22;43129;52.628;10.098;2023-09-18T05:40:43;17.80;99.90
57282;DHT22;43129;52.628;10.098;2023-09-18T05:43:12;17.90;99.90
57282;DHT22;43129;52.628;10.098;2023-09-18T05:45:38;18.00;99.90
57282;DHT22;43129;52.628;10.098;2023-09-18T05:48:04;18.10;99.90
57282;DHT22;43129;52.628;10.098;2023-09-18T05:50:30;18.10;99.90
57282;DHT22;43129;52.628;10.098;2023-09-18T05:52:57;18.20;99.90
57282;DHT22;43129;52.628;10.098;2023-09-18T05:55:33;18.20;99.90
57282;DHT22;43129;52.628;10.098;2023-09-18T05:57:59;18.30;99.90
57282;DHT22;43129;52.628;10.098;2023-09-18T06:00:25;18.40;99.90
57282;DHT22;43129;52.628;10.098;2023-09-18T06:02:51;18.50;99.90
57282;DHT22;43129;52.628;10.098;2023-09-18T06:05:28;18.50;99.90
57282;DHT22;43129;52.628;10.098;2023-09-18T06:07:56;18.60;99.90
57282;DHT22;43129;52.628;10.098;2023-09-18T06:10:24;18.60;99.90
57282;DHT22;43129;52.628;10.098;2023-09-18T06:12:50;18.60;99.90
57282;DHT22;43129;52.628;10.098;2023-09-18T06:15:15;18.50;99.90
57282;DHT22;43129;52.628;10.098;2023-09-18T06:17:43;18.50;99.90
57282;DHT22;43129;52.628;10.098;2023-09-18T06:20:10;18.60;99.90
57282;DHT22;43129;52.628;10.098;2023-09-18T06:22:39;18.60;99.90
57282;DHT22;43129;52.628;10.098;2023-09-18T06:25:08;18.70;99.90
57282;DHT22;43129;52.628;10.098;2023-09-18T06:27:41;18.80;99.90
57282;DHT22;43129;52.628;10.098;2023-09-18T06:30:07;18.90;99.90
57282;DHT22;43129;52.628;10.098;2023-09-18T06:32:33;19.00;99.90
57282;DHT22;43129;52.628;10.098;2023-09-18T06:34:59;19.00;99.90
57282;DHT22;43129;52.628;10.098;2023-09-18T06:37:27;19.10;99.90
57282;DHT22;43129;52.628;10.098;2023-09-18T06:39:52;19.00;99.90
57282;DHT22;43129;52.628;10.098;2023-09-18T06:42:18;19.10;99.90
57282;DHT22;43129;52.628;10.098;2023-09-18T06:44:44;19.20;99.90
57282;DHT22;43129;52.628;10.098;2023-09-18T06:47:10;19.40;99.90
57282;DHT22;43129;52.628;10.098;2023-09-18T06:49:36;19.20;99.90
57282;DHT22;43129;52.628;10.098;2023-09-18T06:52:02;19.30;99.90
57282;DHT22;43129;52.628;10.098;2023-09-18T06:54:27;19.50;99.90
57282;DHT22;43129;52.628;10.098;2023-09-18T06:56:55;19.60;99.90
57282;DHT22;43129;52.628;10.098;2023-09-18T06:59:22;19.50;99.90
57282;DHT22;43129;52.628;10.098;2023-09-18T07:01:47;19.40;99.90
57282;DHT22;43129;52.628;10.098;2023-09-18T07:04:15;19.40;99.90
57282;DHT22;43129;52.628;10.098;2023-09-18T07:06:41;19.40;99.90
57282;DHT22;43129;52.628;10.098;2023-09-18T07:09:06;19.50;99.90
57282;DHT22;43129;52.628;10.098;2023-09-18T07:11:34;19.50;99.90
57282;DHT22;43129;52.628;10.098;2023-09-18T07:14:00;19.50;99.90
57282;DHT22;43129;52.628;10.098;2023-09-18T07:16:30;19.40;99.90
57282;DHT22;43129;52.628;10.098;2023-09-18T07:18:55;19.60;99.90
57282;DHT22;43129;52.628;10.098;2023-09-18T07:21:21;19.60;99.90
57282;DHT22;43129;52.628;10.098;2023-09-18T07:23:46;19.70;99.90
57282;DHT22;43129;52.628;10.098;2023-09-18T07:26:13;19.60;99.90
57282;DHT22;43129;52.628;10.098;2023-09-18T07:28:38;19.50;99.90
57282;DHT22;43129;52.628;10.098;2023-09-18T07:31:09;19.50;99.90
57282;DHT22;43129;52.628;10.098;2023-09-18T07:33:37;19.50;99.90
57282;DHT22;43129;52.628;10.098;2023-09-18T07:36:06;19.50;99.90
57282;DHT22;43129;52.628;10.098;2023-09-18T07:38:31;19.50;99.90
57282;DHT22;43129;52.628;10.098;2023-09-18T07:41:00;19.40;99.90
57282;DHT22;43129;52.628;10.098;2023-09-18T07:43:25;19.40;99.90
57282;DHT22;43129;52.628;10.098;2023-09-18T07:45:52;19.40;99.90
57282;DHT22;43129;52.628;10.098;2023-09-18T07:48:18;19.30;99.90
57282;DHT22;43129;52.628;10.098;2023-09-18T07:50:46;19.30;99.90
57282;DHT22;43129;52.628;10.098;2023-09-18T07:53:14;19.40;99.90
57282;DHT22;43129;52.628;10.098;2023-09-18T07:55:40;19.40;99.90
57282;DHT22;43129;52.628;10.098;2023-09-18T07:58:08;19.40;99.90
57282;DHT22;43129;52.628;10.098;2023-09-18T08:00:37;19.50;99.90
57282;DHT22;43129;52.628;10.098;2023-09-18T08:03:02;19.60;99.90
57282;DHT22;43129;52.628;10.098;2023-09-18T08:05:31;19.60;99.90
57282;DHT22;43129;52.628;10.098;2023-09-18T08:07:59;19.60;99.90
57282;DHT22;43129;52.628;10.098;2023-09-18T08:10:26;19.70;99.90
57282;DHT22;43129;52.628;10.098;2023-09-18T08:12:52;19.60;99.90
57282;DHT22;43129;52.628;10.098;2023-09-18T08:15:19;19.70;99.90
57282;DHT22;43129;52.628;10.098;2023-09-18T08:17:45;19.60;99.90
57282;DHT22;43129;52.628;10.098;2023-09-18T08:20:15;19.80;99.90
57282;DHT22;43129;52.628;10.098;2023-09-18T08:22:43;19.70;99.90
57282;DHT22;43129;52.628;10.098;2023-09-18T08:25:10;19.80;99.90
57282;DHT22;43129;52.628;10.098;2023-09-18T08:27:39;19.80;99.90
57282;DHT22;43129;52.628;10.098;2023-09-18T08:30:08;19.90;99.90
57282;DHT22;43129;52.628;10.098;2023-09-18T08:32:38;19.90;99.90
57282;DHT22;43129;52.628;10.098;2023-09-18T08:35:07;20.20;99.90
57282;DHT22;43129;52.628;10.098;2023-09-18T08:37:33;20.40;99.90
57282;DHT22;43129;52.628;10.098;2023-09-18T08:39:58;20.50;99.90
57282;DHT22;43129;52.628;10.098;2023-09-18T08:42:35;20.50;99.90
57282;DHT22;43129;52.628;10.098;2023-09-18T08:45:09;20.70;99.90
57282;DHT22;43129;52.628;10.098;2023-09-18T08:47:35;20.90;99.90
57282;DHT22;43129;52.628;10.098;2023-09-18T08:50:03;21.20;99.90
57282;DHT22;43129;52.628;10.098;2023-09-18T08:52:33;21.30;99.90
57282;DHT22;43129;52.628;10.098;2023-09-18T08:55:01;21.30;99.90
57282;DHT22;43129;52.628;10.098;2023-09-18T08:57:29;21.70;99.90
57282;DHT22;43129;52.628;10.098;2023-09-18T08:59:56;22.00;99.90
57282;DHT22;43129;52.628;10.098;2023-09-18T09:02:26;22.40;99.90
57282;DHT22;43129;52.628;10.098;2023-09-18T09:04:54;22.50;99.90
57282;DHT22;43129;52.628;10.098;2023-09-18T09:07:19;22.60;99.90
57282;DHT22;43129;52.628;10.098;2023-09-18T09:09:45;22.70;99.90
57282;DHT22;43129;52.628;10.098;2023-09-18T09:12:13;23.30;99.90
57282;DHT22;43129;52.628;10.098;2023-09-18T09:14:39;23.20;99.90
57282;DHT22;43129;52.628;10.098;2023-09-18T09:17:04;23.20;99.90
57282;DHT22;43129;52.628;10.098;2023-09-18T09:19:33;23.10;99.90
57282;DHT22;43129;52.628;10.098;2023-09-18T09:22:01;23.10;99.90
57282;DHT22;43129;52.628;10.098;2023-09-18T09:24:41;22.80;99.90
57282;DHT22;43129;52.628;10.098;2023-09-18T09:27:08;22.70;99.90
57282;DHT22;43129;52.628;10.098;2023-09-18T09:29:34;22.60;99.90
57282;DHT22;43129;52.628;10.098;2023-09-18T09:32:18;22.70;99.90
57282;DHT22;43129;52.628;10.098;2023-09-18T09:34:45;22.90;99.90
57282;DHT22;43129;52.628;10.098;2023-09-18T09:37:14;22.90;99.90
57282;DHT22;43129;52.628;10.098;2023-09-18T09:39:51;23.00;99.90
57282;DHT22;43129;52.628;10.098;2023-09-18T09:42:19;23.10;99.90
57282;DHT22;43129;52.628;10.098;2023-09-18T09:45:04;23.20;99.90
57282;DHT22;43129;52.628;10.098;2023-09-18T09:47:36;23.20;99.90
57282;DHT22;43129;52.628;10.098;2023-09-18T09:50:22;23.30;99.90
57282;DHT22;43129;52.628;10.098;2023-09-18T09:52:52;23.20;99.90
57282;DHT22;43129;52.628;10.098;2023-09-18T09:55:31;23.10;99.90
57282;DHT22;43129;52.628;10.098;2023-09-18T09:58:03;23.50;99.90
57282;DHT22;43129;52.628;10.098;2023-09-18T10:03:11;23.60;99.90
57282;DHT22;43129;52.628;10.098;2023-09-18T10:05:40;23.70;99.90
57282;DHT22;43129;52.628;10.098;2023-09-18T10:08:26;23.50;99.90
57282;DHT22;43129;52.628;10.098;2023-09-18T10:10:56;23.70;99.90
57282;DHT22;43129;52.628;10.098;2023-09-18T10:16:17;23.90;99.90
57282;DHT22;43129;52.628;10.098;2023-09-18T10:24:34;23.70;99.90
57282;DHT22;43129;52.628;10.098;2023-09-18T10:27:03;23.70;99.90
57282;DHT22;43129;52.628;10.098;2023-09-18T10:29:30;23.50;99.90
57282;DHT22;43129;52.628;10.098;2023-09-18T10:31:56;23.60;99.90
57282;DHT22;43129;52.628;10.098;2023-09-18T10:34:25;23.60;99.90
57282;DHT22;43129;52.628;10.098;2023-09-18T10:36:56;23.80;99.90
57282;DHT22;43129;52.628;10.098;2023-09-18T10:39:25;24.10;99.90
57282;DHT22;43129;52.628;10.098;2023-09-18T10:41:58;24.30;99.90
57282;DHT22;43129;52.628;10.098;2023-09-18T10:44:28;24.30;99.90
57282;DHT22;43129;52.628;10.098;2023-09-18T10:46:54;24.40;99.90
57282;DHT22;43129;52.628;10.098;2023-09-18T10:49:23;24.40;99.90
57282;DHT22;43129;52.628;10.098;2023-09-18T10:51:55;24.30;99.90
57282;DHT22;43129;52.628;10.098;2023-09-18T10:54:24;24.40;99.90
57282;DHT22;43129;52.628;10.098;2023-09-18T10:56:52;24.60;99.90
57282;DHT22;43129;52.628;10.098;2023-09-18T10:59:20;24.70;99.90
57282;DHT22;43129;52.628;10.098;2023-09-18T11:01:46;25.20;99.90
57282;DHT22;43129;52.628;10.098;2023-09-18T11:04:19;25.20;99.90
57282;DHT22;43129;52.628;10.098;2023-09-18T11:09:21;24.60;99.90
57282;DHT22;43129;52.628;10.098;2023-09-18T11:11:51;24.50;99.90
57282;DHT22;43129;52.628;10.098;2023-09-18T11:14:17;24.30;99.90
57282;DHT22;43129;52.628;10.098;2023-09-18T11:16:43;24.20;99.90
57282;DHT22;43129;52.628;10.098;2023-09-18T11:19:11;24.30;99.90
57282;DHT22;43129;52.628;10.098;2023-09-18T11:21:39;24.40;99.90
57282;DHT22;43129;52.628;10.098;2023-09-18T11:24:07;24.40;99.90
57282;DHT22;43129;52.628;10.098;2023-09-18T11:26:39;24.10;99.90
57282;DHT22;43129;52.628;10.098;2023-09-18T11:29:09;23.70;99.90
57282;DHT22;43129;52.628;10.098;2023-09-18T11:31:54;23.70;99.90
57282;DHT22;43129;52.628;10.098;2023-09-18T11:34:24;23.50;99.90
57282;DHT22;43129;52.628;10.098;2023-09-18T11:36:54;23.50;99.90
57282;DHT22;43129;52.628;10.098;2023-09-18T11:39:40;23.70;99.90
57282;DHT22;43129;52.628;10.098;2023-09-18T11:44:38;24.00;99.90
57282;DHT22;43129;52.628;10.098;2023-09-18T11:47:11;24.10;99.90
57282;DHT22;43129;52.628;10.098;2023-09-18T11:49:57;24.00;99.90
57282;DHT22;43129;52.628;10.098;2023-09-18T11:52:32;24.10;99.90
57282;DHT22;43129;52.628;10.098;2023-09-18T11:55:04;24.30;99.90
57282;DHT22;43129;52.628;10.098;2023-09-18T11:57:35;24.30;99.90
57282;DHT22;43129;52.628;10.098;2023-09-18T12:00:01;24.50;99.90
57282;DHT22;43129;52.628;10.098;2023-09-18T12:02:37;24.80;99.90
57282;DHT22;43129;52.628;10.098;2023-09-18T12:05:16;25.00;99.90
57282;DHT22;43129;52.628;10.098;2023-09-18T12:07:44;25.10;99.90
57282;DHT22;43129;52.628;10.098;2023-09-18T12:10:19;24.90;99.90
57282;DHT22;43129;52.628;10.098;2023-09-18T12:12:48;24.60;99.90
57282;DHT22;43129;52.628;10.098;2023-09-18T12:15:16;24.30;99.90
57282;DHT22;43129;52.628;10.098;2023-09-18T12:17:42;24.10;99.90
57282;DHT22;43129;52.628;10.098;2023-09-18T12:20:17;24.10;99.90
57282;DHT22;43129;52.628;10.098;2023-09-18T12:22:52;24.00;99.90
57282;DHT22;43129;52.628;10.098;2023-09-18T12:25:19;24.00;99.90
57282;DHT22;43129;52.628;10.098;2023-09-18T12:27:52;24.10;99.90
57282;DHT22;43129;52.628;10.098;2023-09-18T12:30:22;24.00;99.90
57282;DHT22;43129;52.628;10.098;2023-09-18T12:32:52;23.80;99.90
57282;DHT22;43129;52.628;10.098;2023-09-18T12:35:22;23.70;99.90
57282;DHT22;43129;52.628;10.098;2023-09-18T12:37:50;23.60;99.90
57282;DHT22;43129;52.628;10.098;2023-09-18T12:40:24;23.80;99.90
57282;DHT22;43129;52.628;10.098;2023-09-18T12:42:51;24.00;99.90
57282;DHT22;43129;52.628;10.098;2023-09-18T12:45:19;24.00;99.90
57282;DHT22;43129;52.628;10.098;2023-09-18T12:47:45;23.90;99.90
57282;DHT22;43129;52.628;10.098;2023-09-18T12:50:14;24.30;99.90
57282;DHT22;43129;52.628;10.098;2023-09-18T12:52:42;24.50;99.90
57282;DHT22;43129;52.628;10.098;2023-09-18T12:55:21;24.50;99.90
57282;DHT22;43129;52.628;10.098;2023-09-18T12:57:46;24.50;99.90
57282;DHT22;43129;52.628;10.098;2023-09-18T13:00:16;24.30;99.90
57282;DHT22;43129;52.628;10.098;2023-09-18T13:02:45;24.20;99.90
57282;DHT22;43129;52.628;10.098;2023-09-18T13:05:11;24.10;99.90
57282;DHT22;43129;52.628;10.098;2023-09-18T13:07:48;24.00;99.90
57282;DHT22;43129;52.628;10.098;2023-09-18T13:10:19;23.70;99.90
57282;DHT22;43129;52.628;10.098;2023-09-18T13:12:48;23.60;99.90
57282;DHT22;43129;52.628;10.098;2023-09-18T13:15:28;23.70;99.90
57282;DHT22;43129;52.628;10.098;2023-09-18T13:17:55;23.80;99.90
57282;DHT22;43129;52.628;10.098;2023-09-18T13:20:25;23.70;99.90
57282;DHT22;43129;52.628;10.098;2023-09-18T13:22:54;23.60;99.90
57282;DHT22;43129;52.628;10.098;2023-09-18T13:25:34;23.30;99.90
57282;DHT22;43129;52.628;10.098;2023-09-18T13:28:01;23.20;99.90
57282;DHT22;43129;52.628;10.098;2023-09-18T13:30:27;23.30;99.90
57282;DHT22;43129;52.628;10.098;2023-09-18T13:35:32;23.20;99.90
57282;DHT22;43129;52.628;10.098;2023-09-18T13:37:57;23.30;99.90
57282;DHT22;43129;52.628;10.098;2023-09-18T13:40:23;23.10;99.90
57282;DHT22;43129;52.628;10.098;2023-09-18T13:42:49;23.10;99.90
57282;DHT22;43129;52.628;10.098;2023-09-18T13:45:15;23.10;99.90
57282;DHT22;43129;52.628;10.098;2023-09-18T13:47:44;23.00;99.90
57282;DHT22;43129;52.628;10.098;2023-09-18T13:50:13;23.10;99.90
57282;DHT22;43129;52.628;10.098;2023-09-18T13:52:38;23.00;99.90
57282;DHT22;43129;52.628;10.098;2023-09-18T13:55:05;23.00;99.90
57282;DHT22;43129;52.628;10.098;2023-09-18T13:57:32;23.00;99.90
57282;DHT22;43129;52.628;10.098;2023-09-18T13:59:59;22.90;99.90
57282;DHT22;43129;52.628;10.098;2023-09-18T14:02:27;22.90;99.90
57282;DHT22;43129;52.628;10.098;2023-09-18T14:04:56;23.10;99.90
57282;DHT22;43129;52.628;10.098;2023-09-18T14:07:22;23.20;99.90
57282;DHT22;43129;52.628;10.098;2023-09-18T14:09:50;23.30;99.90
57282;DHT22;43129;52.628;10.098;2023-09-18T14:12:18;23.50;99.90
57282;DHT22;43129;52.628;10.098;2023-09-18T14:14:46;23.50;99.90
57282;DHT22;43129;52.628;10.098;2023-09-18T14:17:17;23.50;99.90
57282;DHT22;43129;52.628;10.098;2023-09-18T14:19:47;23.40;99.90
57282;DHT22;43129;52.628;10.098;2023-09-18T14:22:15;23.50;99.90
57282;DHT22;43129;52.628;10.098;2023-09-18T14:24:41;23.30;99.90
57282;DHT22;43129;52.628;10.098;2023-09-18T14:27:07;23.30;99.90
57282;DHT22;43129;52.628;10.098;2023-09-18T14:29:33;23.40;99.90
57282;DHT22;43129;52.628;10.098;2023-09-18T14:32:02;23.30;99.90
57282;DHT22;43129;52.628;10.098;2023-09-18T14:34:29;23.20;99.90
57282;DHT22;43129;52.628;10.098;2023-09-18T14:36:58;23.30;99.90
57282;DHT22;43129;52.628;10.098;2023-09-18T14:39:24;23.40;99.90
57282;DHT22;43129;52.628;10.098;2023-09-18T14:41:49;23.30;99.90
57282;DHT22;43129;52.628;10.098;2023-09-18T14:44:17;23.40;99.90
57282;DHT22;43129;52.628;10.098;2023-09-18T14:46:45;23.10;99.90
57282;DHT22;43129;52.628;10.098;2023-09-18T14:49:13;23.20;99.90
57282;DHT22;43129;52.628;10.098;2023-09-18T14:51:41;23.20;99.90
57282;DHT22;43129;52.628;10.098;2023-09-18T14:54:11;23.20;99.90
57282;DHT22;43129;52.628;10.098;2023-09-18T14:56:39;23.20;99.90
57282;DHT22;43129;52.628;10.098;2023-09-18T14:59:06;23.20;99.90
57282;DHT22;43129;52.628;10.098;2023-09-18T15:01:33;23.10;99.90
57282;DHT22;43129;52.628;10.098;2023-09-18T15:04:01;23.00;99.90
57282;DHT22;43129;52.628;10.098;2023-09-18T15:06:29;22.90;99.90
57282;DHT22;43129;52.628;10.098;2023-09-18T15:08:57;22.90;99.90
57282;DHT22;43129;52.628;10.098;2023-09-18T15:11:23;23.00;99.90
57282;DHT22;43129;52.628;10.098;2023-09-18T15:13:51;22.90;99.90
57282;DHT22;43129;52.628;10.098;2023-09-18T15:16:17;22.90;99.90
57282;DHT22;43129;52.628;10.098;2023-09-18T15:18:42;22.80;99.90
57282;DHT22;43129;52.628;10.098;2023-09-18T15:21:10;22.80;99.90
57282;DHT22;43129;52.628;10.098;2023-09-18T15:23:40;22.70;99.90
57282;DHT22;43129;52.628;10.098;2023-09-18T15:26:08;22.60;99.90
57282;DHT22;43129;52.628;10.098;2023-09-18T15:28:34;22.70;99.90
57282;DHT22;43129;52.628;10.098;2023-09-18T15:30:59;22.60;99.90
57282;DHT22;43129;52.628;10.098;2023-09-18T15:33:25;22.50;99.90
57282;DHT22;43129;52.628;10.098;2023-09-18T15:35:51;22.60;99.90
57282;DHT22;43129;52.628;10.098;2023-09-18T15:38:23;22.50;99.90
57282;DHT22;43129;52.628;10.098;2023-09-18T15:40:52;22.50;99.90